Time;durP1;ratioP1;P1;durP2;ratioP2;P2;SDS_P1;SDS_P2;PMS_P1;PMS_P2;Temp;Humidity;BMP_temperature;BMP_pressure;BME280_temperature;BME280_humidity;BME280_pressure;Samples;Min_cycle;Max_cycle;Signal;HPM_P1;HPM_P2
2019/11/09 00:00:22;;;;;;;1.50;1.40;;;;;;;20.34;51.69;99785.78;;;;-51
2019/11/09 00:03:19;;;;;;;1.53;1.43;;;;;;;20.33;51.76;99792.29;;;;-51
2019/11/09 00:06:19;;;;;;;2.05;1.51;;;;;;;20.32;51.83;99799.30;;;;-51
2019/11/09 00:09:19;;;;;;;1.52;1.42;;;;;;;20.31;51.76;99803.36;;;;-52
2019/11/09 00:12:19;;;;;;;1.62;1.52;;;;;;;20.31;51.85;99809.73;;;;-51
2019/11/09 00:15:19;;;;;;;2.10;1.63;;;;;;;20.30;51.79;99817.52;;;;-51
2019/11/09 00:18:19;;;;;;;1.71;1.61;;;;;;;20.30;51.78;99825.84;;;;-51
2019/11/09 00:21:19;;;;;;;1.60;1.50;;;;;;;20.29;51.78;99830.80;;;;-51
2019/11/09 00:24:19;;;;;;;1.83;1.65;;;;;;;20.27;51.91;99833.59;;;;-51
2019/11/09 00:27:19;;;;;;;1.81;1.59;;;;;;;20.26;51.90;99838.76;;;;-51
2019/11/09 00:30:19;;;;;;;1.64;1.40;;;;;;;20.26;51.83;99836.81;;;;-52
2019/11/09 00:33:19;;;;;;;1.59;1.47;;;;;;;20.25;51.87;99839.47;;;;-51
2019/11/09 00:36:19;;;;;;;1.63;1.53;;;;;;;20.23;51.96;99843.89;;;;-51
2019/11/09 00:39:19;;;;;;;1.60;1.50;;;;;;;20.23;51.92;99851.00;;;;-51
2019/11/09 00:42:19;;;;;;;1.67;1.50;;;;;;;20.21;51.87;99851.55;;;;-51
2019/11/09 00:45:19;;;;;;;1.45;1.35;;;;;;;20.20;51.88;99854.77;;;;-51
2019/11/09 00:48:19;;;;;;;1.50;1.40;;;;;;;20.20;51.85;99864.66;;;;-51
2019/11/09 00:51:19;;;;;;;1.55;1.41;;;;;;;20.19;51.96;99862.78;;;;-52
2019/11/09 00:54:19;;;;;;;2.04;1.66;;;;;;;20.17;51.93;99859.53;;;;-50
2019/11/09 00:57:19;;;;;;;1.51;1.41;;;;;;;20.17;51.91;99866.23;;;;-50
2019/11/09 01:00:19;;;;;;;1.70;1.60;;;;;;;20.15;52.03;99868.19;;;;-50
2019/11/09 01:03:19;;;;;;;1.53;1.43;;;;;;;20.15;51.95;99870.30;;;;-50
2019/11/09 01:06:19;;;;;;;1.57;1.47;;;;;;;20.15;52.01;99871.97;;;;-50
2019/11/09 01:09:19;;;;;;;1.93;1.53;;;;;;;20.14;51.91;99868.99;;;;-50
2019/11/09 01:12:19;;;;;;;1.61;1.50;;;;;;;20.13;51.88;99867.62;;;;-50
2019/11/09 01:15:19;;;;;;;1.60;1.50;;;;;;;20.12;51.96;99868.02;;;;-51
2019/11/09 01:18:19;;;;;;;1.61;1.51;;;;;;;20.12;51.98;99874.29;;;;-50
2019/11/09 01:21:19;;;;;;;1.61;1.51;;;;;;;20.11;51.96;99873.92;;;;-50
2019/11/09 01:24:19;;;;;;;1.41;1.31;;;;;;;20.10;51.98;99873.48;;;;-49
2019/11/09 01:27:19;;;;;;;1.59;1.49;;;;;;;20.10;51.94;99874.22;;;;-49
2019/11/09 01:30:19;;;;;;;1.39;1.29;;;;;;;20.09;51.96;99868.09;;;;-51
2019/11/09 01:36:19;;;;;;;1.63;1.53;;;;;;;20.07;51.93;99862.16;;;;-51
2019/11/09 01:39:19;;;;;;;1.49;1.39;;;;;;;20.05;51.95;99853.88;;;;-51
2019/11/09 01:42:19;;;;;;;1.53;1.39;;;;;;;20.04;51.97;99853.61;;;;-52
2019/11/09 01:45:19;;;;;;;1.40;1.30;;;;;;;20.05;51.99;99850.93;;;;-51
2019/11/09 01:48:19;;;;;;;1.63;1.47;;;;;;;20.03;52.02;99847.11;;;;-52
2019/11/09 01:51:19;;;;;;;1.51;1.41;;;;;;;20.03;51.99;99845.60;;;;-51
2019/11/09 01:54:19;;;;;;;1.51;1.41;;;;;;;20.03;51.96;99849.29;;;;-51
2019/11/09 01:57:19;;;;;;;1.47;1.37;;;;;;;20.02;51.97;99848.25;;;;-51
2019/11/09 02:00:19;;;;;;;1.53;1.43;;;;;;;20.00;52.06;99844.33;;;;-51
2019/11/09 02:03:19;;;;;;;1.68;1.50;;;;;;;20.00;52.06;99848.36;;;;-51
2019/11/09 02:06:19;;;;;;;1.39;1.29;;;;;;;20.00;52.05;99850.37;;;;-52
2019/11/09 02:09:19;;;;;;;2.41;1.47;;;;;;;19.99;52.07;99853.85;;;;-51
2019/11/09 02:12:19;;;;;;;1.55;1.45;;;;;;;19.99;52.03;99857.04;;;;-51
2019/11/09 02:15:19;;;;;;;1.50;1.40;;;;;;;19.99;52.07;99856.20;;;;-51
2019/11/09 02:18:19;;;;;;;1.51;1.41;;;;;;;19.97;52.08;99853.16;;;;-52
2019/11/09 02:21:19;;;;;;;1.50;1.40;;;;;;;19.96;52.05;99856.09;;;;-51
2019/11/09 02:24:19;;;;;;;1.59;1.40;;;;;;;19.96;52.01;99853.98;;;;-52
2019/11/09 02:27:19;;;;;;;1.53;1.43;;;;;;;19.95;52.12;99850.34;;;;-51
2019/11/09 02:30:19;;;;;;;1.45;1.35;;;;;;;19.95;52.13;99849.90;;;;-51
2019/11/09 02:33:19;;;;;;;1.43;1.33;;;;;;;19.94;52.17;99849.03;;;;-51
2019/11/09 02:36:19;;;;;;;1.47;1.37;;;;;;;19.93;52.06;99844.50;;;;-51
2019/11/09 02:39:19;;;;;;;1.46;1.36;;;;;;;19.92;52.13;99842.59;;;;-51
2019/11/09 02:42:19;;;;;;;1.61;1.50;;;;;;;19.92;52.08;99837.67;;;;-51
2019/11/09 02:45:19;;;;;;;1.38;1.28;;;;;;;19.92;52.15;99841.59;;;;-51
2019/11/09 02:48:19;;;;;;;1.56;1.45;;;;;;;19.89;52.13;99843.30;;;;-51
2019/11/09 02:51:19;;;;;;;1.50;1.40;;;;;;;19.90;52.15;99845.91;;;;-51
2019/11/09 02:54:19;;;;;;;1.55;1.45;;;;;;;19.89;52.14;99846.38;;;;-51
2019/11/09 02:57:19;;;;;;;1.81;1.41;;;;;;;19.89;52.18;99847.45;;;;-51
2019/11/09 03:00:19;;;;;;;1.45;1.35;;;;;;;19.87;52.14;99851.45;;;;-51
2019/11/09 03:03:19;;;;;;;1.60;1.50;;;;;;;19.87;52.13;99846.25;;;;-51
2019/11/09 03:06:19;;;;;;;1.61;1.51;;;;;;;19.87;52.11;99852.02;;;;-50
2019/11/09 03:09:19;;;;;;;1.69;1.49;;;;;;;19.86;52.18;99855.27;;;;-50
2019/11/09 03:13:20;;;;;;;1.40;1.30;;;;;;;19.86;52.18;99857.34;;;;-49
2019/11/09 03:20:19;;;;;;;1.53;1.43;;;;;;;19.84;52.15;99859.36;;;;-50
2019/11/09 03:23:19;;;;;;;1.61;1.51;;;;;;;19.83;52.19;99859.25;;;;-50
2019/11/09 03:26:19;;;;;;;1.50;1.40;;;;;;;19.82;52.15;99864.18;;;;-50
2019/11/09 03:29:19;;;;;;;1.60;1.50;;;;;;;19.82;52.16;99870.88;;;;-50
2019/11/09 03:32:19;;;;;;;1.50;1.40;;;;;;;19.81;52.18;99868.67;;;;-50
2019/11/09 03:35:19;;;;;;;1.40;1.30;;;;;;;19.82;52.18;99873.40;;;;-50
2019/11/09 03:38:19;;;;;;;1.45;1.35;;;;;;;19.81;52.24;99871.76;;;;-49
2019/11/09 03:41:19;;;;;;;1.48;1.38;;;;;;;19.80;52.24;99867.70;;;;-50
2019/11/09 03:44:19;;;;;;;1.44;1.34;;;;;;;19.80;52.22;99870.05;;;;-51
2019/11/09 03:47:19;;;;;;;1.61;1.51;;;;;;;19.79;52.22;99867.84;;;;-51
2019/11/09 03:50:19;;;;;;;1.50;1.40;;;;;;;19.79;52.24;99867.50;;;;-51
2019/11/09 03:53:19;;;;;;;1.65;1.37;;;;;;;19.78;52.22;99863.37;;;;-51
2019/11/09 03:57:19;;;;;;;1.59;1.49;;;;;;;19.76;52.24;99863.55;;;;-51
2019/11/09 04:00:19;;;;;;;1.61;1.51;;;;;;;19.76;52.24;99860.70;;;;-51
2019/11/09 04:03:20;;;;;;;1.60;1.50;;;;;;;19.76;52.24;99865.22;;;;-51
2019/11/09 04:06:19;;;;;;;1.73;1.61;;;;;;;19.76;52.22;99870.52;;;;-51
2019/11/09 04:09:19;;;;;;;1.57;1.47;;;;;;;19.75;52.20;99869.41;;;;-51
2019/11/09 04:12:19;;;;;;;1.69;1.59;;;;;;;19.76;52.23;99870.75;;;;-51
2019/11/09 04:15:19;;;;;;;1.48;1.38;;;;;;;19.74;52.21;99876.48;;;;-51
2019/11/09 04:18:19;;;;;;;1.52;1.42;;;;;;;19.73;52.21;99877.08;;;;-51
2019/11/09 04:21:19;;;;;;;1.87;1.61;;;;;;;19.72;52.20;99887.23;;;;-51
2019/11/09 04:24:19;;;;;;;1.67;1.57;;;;;;;19.73;52.26;99890.75;;;;-51
2019/11/09 04:27:19;;;;;;;1.73;1.63;;;;;;;19.71;52.22;99891.05;;;;-51
2019/11/09 04:30:19;;;;;;;1.69;1.59;;;;;;;19.71;52.27;99892.13;;;;-51
2019/11/09 04:33:19;;;;;;;2.00;1.69;;;;;;;19.71;52.26;99892.52;;;;-51
2019/11/09 04:36:19;;;;;;;1.60;1.50;;;;;;;19.71;52.29;99893.59;;;;-51
2019/11/09 04:39:19;;;;;;;1.69;1.59;;;;;;;19.70;52.22;99891.98;;;;-52
2019/11/09 04:42:19;;;;;;;1.61;1.49;;;;;;;19.70;52.21;99898.69;;;;-51
2019/11/09 04:45:19;;;;;;;1.61;1.51;;;;;;;19.69;52.26;99896.20;;;;-51
2019/11/09 04:48:19;;;;;;;1.70;1.60;;;;;;;19.69;52.21;99897.55;;;;-51
2019/11/09 04:51:19;;;;;;;1.75;1.63;;;;;;;19.67;52.26;99897.45;;;;-52
2019/11/09 04:54:19;;;;;;;1.56;1.46;;;;;;;19.66;52.26;99902.77;;;;-51
2019/11/09 04:57:19;;;;;;;1.68;1.58;;;;;;;19.66;52.26;99900.89;;;;-51
2019/11/09 05:00:19;;;;;;;1.82;1.72;;;;;;;19.67;52.25;99903.20;;;;-52
2019/11/09 05:03:19;;;;;;;1.74;1.64;;;;;;;19.66;52.26;99904.41;;;;-51
2019/11/09 05:06:19;;;;;;;1.78;1.68;;;;;;;19.66;52.25;99908.27;;;;-50
2019/11/09 05:09:19;;;;;;;1.79;1.69;;;;;;;19.66;52.23;99910.20;;;;-51
2019/11/09 05:12:19;;;;;;;1.67;1.57;;;;;;;19.66;52.18;99915.34;;;;-50
2019/11/09 05:15:19;;;;;;;1.70;1.60;;;;;;;19.67;52.20;99918.45;;;;-50
2019/11/09 05:18:19;;;;;;;1.62;1.41;;;;;;;19.68;52.19;99917.48;;;;-50
2019/11/09 05:21:19;;;;;;;1.68;1.58;;;;;;;19.70;52.21;99918.02;;;;-50
2019/11/09 05:24:19;;;;;;;1.63;1.50;;;;;;;19.71;52.26;99918.25;;;;-50
2019/11/09 05:27:19;;;;;;;1.80;1.68;;;;;;;19.73;52.29;99919.09;;;;-50
2019/11/09 05:30:19;;;;;;;1.61;1.51;;;;;;;19.75;52.32;99922.85;;;;-50
2019/11/09 05:33:19;;;;;;;1.60;1.50;;;;;;;19.78;52.43;99921.34;;;;-50
2019/11/09 05:36:19;;;;;;;1.66;1.56;;;;;;;19.81;52.41;99925.71;;;;-50
2019/11/09 05:39:19;;;;;;;1.48;1.38;;;;;;;19.84;52.37;99927.05;;;;-50
2019/11/09 05:42:19;;;;;;;1.60;1.50;;;;;;;19.87;52.37;99927.25;;;;-50
2019/11/09 05:45:19;;;;;;;1.50;1.40;;;;;;;19.90;52.35;99924.45;;;;-50
2019/11/09 05:48:19;;;;;;;2.30;1.50;;;;;;;19.95;52.36;99926.99;;;;-50
2019/11/09 05:51:19;;;;;;;1.60;1.50;;;;;;;19.98;52.38;99925.32;;;;-50
2019/11/09 05:54:19;;;;;;;1.40;1.30;;;;;;;20.02;52.46;99927.20;;;;-50
2019/11/09 05:57:19;;;;;;;1.50;1.39;;;;;;;20.04;52.50;99926.02;;;;-50
2019/11/09 06:00:19;;;;;;;1.61;1.51;;;;;;;20.07;52.50;99924.18;;;;-50
2019/11/09 06:03:19;;;;;;;1.58;1.40;;;;;;;20.11;52.55;99929.01;;;;-50
2019/11/09 06:06:19;;;;;;;1.60;1.49;;;;;;;20.14;52.54;99925.59;;;;-50
2019/11/09 06:09:19;;;;;;;1.51;1.41;;;;;;;20.17;52.55;99926.02;;;;-50
2019/11/09 06:12:19;;;;;;;1.63;1.51;;;;;;;20.20;52.57;99927.19;;;;-50
2019/11/09 06:15:19;;;;;;;1.65;1.55;;;;;;;20.22;52.60;99929.44;;;;-50
2019/11/09 06:18:19;;;;;;;1.45;1.35;;;;;;;20.25;52.61;99932.32;;;;-50
2019/11/09 06:21:19;;;;;;;1.56;1.46;;;;;;;20.27;52.60;99930.58;;;;-50
2019/11/09 06:24:19;;;;;;;1.73;1.63;;;;;;;20.30;52.59;99934.86;;;;-50
2019/11/09 06:27:19;;;;;;;1.43;1.33;;;;;;;20.31;52.60;99938.19;;;;-50
2019/11/09 06:30:19;;;;;;;2.07;1.60;;;;;;;20.33;52.57;99938.02;;;;-50
2019/11/09 06:33:19;;;;;;;1.59;1.49;;;;;;;20.35;52.53;99937.98;;;;-50
2019/11/09 06:36:19;;;;;;;1.53;1.43;;;;;;;20.37;52.53;99943.52;;;;-50
2019/11/09 06:39:19;;;;;;;1.56;1.46;;;;;;;20.38;52.53;99944.05;;;;-50
2019/11/09 06:42:19;;;;;;;1.70;1.60;;;;;;;20.40;52.51;99948.48;;;;-50
2019/11/09 06:45:19;;;;;;;1.69;1.59;;;;;;;20.41;52.48;99950.69;;;;-50
2019/11/09 06:48:19;;;;;;;1.62;1.44;;;;;;;20.43;52.44;99957.70;;;;-50
2019/11/09 06:51:19;;;;;;;1.59;1.49;;;;;;;20.44;52.41;99960.41;;;;-50
2019/11/09 06:54:19;;;;;;;1.65;1.55;;;;;;;20.44;52.36;99965.21;;;;-50
2019/11/09 06:57:19;;;;;;;1.66;1.56;;;;;;;20.46;52.35;99968.70;;;;-50
2019/11/09 07:00:19;;;;;;;1.69;1.50;;;;;;;20.46;52.36;99969.03;;;;-50
2019/11/09 07:03:19;;;;;;;1.70;1.60;;;;;;;20.47;52.31;99976.61;;;;-50
2019/11/09 07:06:19;;;;;;;1.71;1.61;;;;;;;20.47;52.33;99977.19;;;;-50
2019/11/09 07:09:19;;;;;;;1.60;1.50;;;;;;;20.48;52.31;99982.82;;;;-50
2019/11/09 07:12:19;;;;;;;1.67;1.57;;;;;;;20.48;52.27;99986.44;;;;-51
2019/11/09 07:15:19;;;;;;;1.62;1.50;;;;;;;20.48;52.23;99986.71;;;;-51
2019/11/09 07:18:19;;;;;;;1.69;1.59;;;;;;;20.48;52.21;99995.44;;;;-52
2019/11/09 07:21:19;;;;;;;1.69;1.59;;;;;;;20.49;52.25;100004.62;;;;-52
2019/11/09 07:24:19;;;;;;;1.69;1.56;;;;;;;20.48;52.16;100003.75;;;;-52
2019/11/09 07:27:19;;;;;;;1.71;1.61;;;;;;;20.49;52.15;100003.92;;;;-51
2019/11/09 07:30:19;;;;;;;1.76;1.66;;;;;;;20.49;52.17;100009.22;;;;-51
2019/11/09 07:33:19;;;;;;;1.60;1.50;;;;;;;20.49;52.19;100016.44;;;;-52
2019/11/09 07:36:19;;;;;;;1.60;1.50;;;;;;;20.49;52.13;100011.84;;;;-51
2019/11/09 07:39:19;;;;;;;1.62;1.52;;;;;;;20.50;52.14;100015.19;;;;-51
2019/11/09 07:42:19;;;;;;;1.49;1.39;;;;;;;20.50;52.10;100015.96;;;;-52
2019/11/09 07:45:19;;;;;;;1.61;1.50;;;;;;;20.50;52.12;100016.20;;;;-51
2019/11/09 07:48:19;;;;;;;1.73;1.63;;;;;;;20.51;52.06;100016.84;;;;-51
2019/11/09 07:51:19;;;;;;;1.59;1.49;;;;;;;20.51;52.06;100020.83;;;;-52
2019/11/09 07:54:19;;;;;;;1.50;1.40;;;;;;;20.51;52.06;100024.12;;;;-51
2019/11/09 07:57:19;;;;;;;1.64;1.54;;;;;;;20.52;52.02;100030.92;;;;-53
2019/11/09 08:00:19;;;;;;;1.60;1.50;;;;;;;20.51;52.05;100031.87;;;;-53
2019/11/09 08:03:19;;;;;;;1.65;1.55;;;;;;;20.51;52.03;100035.29;;;;-51
2019/11/09 08:06:19;;;;;;;1.60;1.50;;;;;;;20.51;52.01;100035.39;;;;-51
2019/11/09 08:09:19;;;;;;;1.68;1.58;;;;;;;20.52;52.02;100036.77;;;;-52
2019/11/09 08:12:19;;;;;;;2.05;1.74;;;;;;;20.53;51.98;100044.31;;;;-51
2019/11/09 08:15:19;;;;;;;1.71;1.61;;;;;;;20.53;51.98;100044.08;;;;-51
2019/11/09 08:18:19;;;;;;;1.62;1.52;;;;;;;20.52;51.98;100045.39;;;;-52
2019/11/09 08:21:19;;;;;;;2.37;1.70;;;;;;;20.53;51.97;100047.43;;;;-51
2019/11/09 08:24:19;;;;;;;3.37;1.74;;;;;;;20.55;52.05;100047.23;;;;-60
2019/11/09 08:27:19;;;;;;;1.67;1.57;;;;;;;20.57;52.26;100047.80;;;;-60
2019/11/09 08:30:19;;;;;;;2.27;1.69;;;;;;;20.58;52.24;100041.23;;;;-58
2019/11/09 08:33:19;;;;;;;2.00;1.75;;;;;;;20.60;52.23;100041.30;;;;-51
2019/11/09 08:36:19;;;;;;;3.70;1.78;;;;;;;20.63;52.11;100044.81;;;;-49
2019/11/09 08:39:19;;;;;;;2.11;1.65;;;;;;;20.64;51.97;100043.58;;;;-49
2019/11/09 08:42:19;;;;;;;2.04;1.84;;;;;;;20.67;52.03;100044.68;;;;-53
2019/11/09 08:45:19;;;;;;;2.33;1.63;;;;;;;20.69;52.16;100041.48;;;;-51
2019/11/09 08:48:19;;;;;;;1.99;1.75;;;;;;;20.72;52.02;100044.67;;;;-51
2019/11/09 08:51:19;;;;;;;2.07;1.77;;;;;;;20.71;51.98;100039.55;;;;-51
2019/11/09 08:54:19;;;;;;;1.87;1.77;;;;;;;20.73;51.93;100039.67;;;;-51
2019/11/09 08:57:19;;;;;;;2.65;1.71;;;;;;;20.72;51.92;100038.30;;;;-51
2019/11/09 09:00:19;;;;;;;1.79;1.69;;;;;;;20.74;51.81;100042.16;;;;-51
2019/11/09 09:03:19;;;;;;;2.21;1.79;;;;;;;20.73;51.79;100042.02;;;;-52
2019/11/09 09:06:19;;;;;;;1.99;1.71;;;;;;;20.74;51.75;100042.66;;;;-51
2019/11/09 09:09:19;;;;;;;2.68;1.81;;;;;;;20.75;51.78;100044.94;;;;-52
2019/11/09 09:12:19;;;;;;;1.88;1.67;;;;;;;20.75;51.72;100048.90;;;;-51
2019/11/09 09:15:19;;;;;;;1.82;1.72;;;;;;;20.77;51.67;100046.69;;;;-51
2019/11/09 09:18:19;;;;;;;1.90;1.71;;;;;;;20.77;51.66;100040.58;;;;-52
2019/11/09 09:21:19;;;;;;;2.81;1.63;;;;;;;20.79;51.73;100045.58;;;;-54
2019/11/09 09:24:19;;;;;;;2.53;1.64;;;;;;;20.79;51.90;100048.50;;;;-58
2019/11/09 09:27:19;;;;;;;1.73;1.63;;;;;;;20.81;52.00;100044.33;;;;-50
2019/11/09 09:30:19;;;;;;;1.83;1.73;;;;;;;20.83;52.10;100047.34;;;;-53
2019/11/09 09:33:19;;;;;;;2.25;1.81;;;;;;;20.84;52.17;100051.58;;;;-52
2019/11/09 09:36:19;;;;;;;8.47;3.08;;;;;;;20.81;49.97;100045.07;;;;-49
2019/11/09 09:39:19;;;;;;;3.35;2.61;;;;;;;20.79;50.11;100047.19;;;;-50
2019/11/09 09:42:19;;;;;;;5.35;2.61;;;;;;;20.80;50.53;100049.60;;;;-49
2019/11/09 09:45:19;;;;;;;4.34;2.70;;;;;;;20.79;50.53;100047.02;;;;-52
2019/11/09 09:48:19;;;;;;;5.71;2.74;;;;;;;20.79;50.63;100047.25;;;;-52
2019/11/09 09:51:19;;;;;;;4.96;2.71;;;;;;;20.85;51.37;100041.44;;;;-49
2019/11/09 09:54:19;;;;;;;4.75;2.57;;;;;;;20.86;51.10;100040.59;;;;-49
2019/11/09 09:57:19;;;;;;;5.79;2.36;;;;;;;20.87;51.30;100039.89;;;;-50
2019/11/09 10:00:19;;;;;;;4.21;2.47;;;;;;;20.88;51.47;100033.11;;;;-48
2019/11/09 10:03:19;;;;;;;4.10;2.40;;;;;;;20.89;51.47;100034.92;;;;-49
2019/11/09 10:06:19;;;;;;;3.76;2.40;;;;;;;20.90;51.55;100034.89;;;;-57
2019/11/09 10:09:19;;;;;;;6.17;2.61;;;;;;;20.91;51.45;100029.78;;;;-57
2019/11/09 10:12:19;;;;;;;8.08;2.70;;;;;;;20.93;51.32;100032.97;;;;-55
2019/11/09 10:15:19;;;;;;;6.95;2.41;;;;;;;20.93;51.41;100028.91;;;;-57
2019/11/09 10:18:19;;;;;;;6.33;2.62;;;;;;;20.92;51.34;100031.49;;;;-57
2019/11/09 10:21:19;;;;;;;6.16;2.50;;;;;;;20.91;51.07;100030.12;;;;-57
2019/11/09 10:24:23;;;;;;;4.49;2.57;;;;;;;20.91;50.96;100029.11;;;;-55
2019/11/09 10:27:19;;;;;;;6.07;2.73;;;;;;;20.90;50.51;100031.09;;;;-56
2019/11/09 10:30:19;;;;;;;3.63;2.73;;;;;;;20.89;50.48;100021.66;;;;-57
2019/11/09 10:36:19;;;;;;;6.65;2.96;;;;;;;20.90;50.43;100024.98;;;;-55
2019/11/09 10:39:19;;;;;;;8.57;2.67;;;;;;;20.92;50.61;100027.90;;;;-57
2019/11/09 10:42:19;;;;;;;4.76;2.78;;;;;;;20.93;50.84;100029.34;;;;-57
2019/11/09 10:45:19;;;;;;;4.77;2.33;;;;;;;20.94;51.07;100027.86;;;;-58
2019/11/09 10:48:19;;;;;;;4.20;2.47;;;;;;;20.95;51.20;100027.13;;;;-54
2019/11/09 10:51:19;;;;;;;4.03;2.44;;;;;;;20.96;51.34;100023.63;;;;-56
2019/11/09 10:54:19;;;;;;;4.31;2.55;;;;;;;20.97;51.35;100023.48;;;;-56
2019/11/09 10:57:19;;;;;;;4.11;2.39;;;;;;;20.99;51.28;100025.94;;;;-55
2019/11/09 11:00:19;;;;;;;4.16;2.30;;;;;;;20.98;51.34;100025.30;;;;-56
2019/11/09 11:03:19;;;;;;;4.59;2.57;;;;;;;20.98;51.38;100025.80;;;;-57
2019/11/09 11:06:19;;;;;;;4.40;2.61;;;;;;;20.99;51.46;100022.55;;;;-57
2019/11/09 11:09:19;;;;;;;2.92;2.45;;;;;;;20.99;51.46;100019.29;;;;-62
2019/11/09 11:12:19;;;;;;;3.01;2.17;;;;;;;21.00;51.42;100012.70;;;;-57
2019/11/09 11:15:19;;;;;;;4.59;2.45;;;;;;;21.01;51.41;100010.52;;;;-57
2019/11/09 11:18:19;;;;;;;2.75;2.20;;;;;;;21.02;51.48;100004.78;;;;-53
2019/11/09 11:21:19;;;;;;;3.47;2.21;;;;;;;21.03;51.51;100000.34;;;;-54
2019/11/09 11:24:19;;;;;;;2.93;2.12;;;;;;;21.03;51.58;100001.38;;;;-57
2019/11/09 11:27:19;;;;;;;3.45;2.39;;;;;;;21.05;51.57;100002.48;;;;-55
2019/11/09 11:30:19;;;;;;;3.69;2.35;;;;;;;21.05;51.59;100003.16;;;;-55
2019/11/09 11:33:19;;;;;;;6.24;2.49;;;;;;;21.06;51.59;99994.72;;;;-55
2019/11/09 11:36:19;;;;;;;3.39;2.28;;;;;;;21.07;51.60;99992.47;;;;-58
2019/11/09 11:39:19;;;;;;;3.33;2.23;;;;;;;21.08;51.67;99987.80;;;;-56
2019/11/09 11:42:19;;;;;;;3.09;2.11;;;;;;;21.07;51.69;99982.87;;;;-65
2019/11/09 11:45:19;;;;;;;2.71;2.23;;;;;;;21.08;51.48;99979.51;;;;-57
2019/11/09 11:48:19;;;;;;;2.30;2.10;;;;;;;21.09;51.47;99981.38;;;;-57
2019/11/09 11:51:19;;;;;;;4.52;2.21;;;;;;;21.07;51.44;99981.36;;;;-57
2019/11/09 11:54:19;;;;;;;2.93;2.20;;;;;;;21.07;51.41;99977.39;;;;-56
2019/11/09 11:57:19;;;;;;;3.45;2.21;;;;;;;21.06;51.38;99974.95;;;;-57
2019/11/09 12:00:19;;;;;;;4.46;2.00;;;;;;;21.06;51.33;99971.32;;;;-57
2019/11/09 12:03:19;;;;;;;2.36;2.16;;;;;;;21.06;51.37;99976.36;;;;-56
2019/11/09 12:06:19;;;;;;;3.23;2.21;;;;;;;21.06;51.39;99974.01;;;;-57
2019/11/09 12:09:19;;;;;;;3.69;2.11;;;;;;;21.05;51.30;99970.59;;;;-57
2019/11/09 12:12:19;;;;;;;2.29;2.07;;;;;;;21.05;51.36;99978.11;;;;-57
2019/11/09 12:15:19;;;;;;;2.14;1.95;;;;;;;21.05;51.35;99977.97;;;;-56
2019/11/09 12:18:19;;;;;;;3.30;2.16;;;;;;;21.05;51.27;99977.14;;;;-57
2019/11/09 12:21:19;;;;;;;2.35;2.13;;;;;;;21.04;50.70;99978.21;;;;-56
2019/11/09 12:24:19;;;;;;;2.55;2.06;;;;;;;21.04;50.96;99974.08;;;;-57
2019/11/09 12:27:19;;;;;;;2.97;2.03;;;;;;;21.04;51.05;99979.29;;;;-57
2019/11/09 12:30:19;;;;;;;2.29;2.06;;;;;;;21.03;51.12;99974.59;;;;-56
2019/11/09 12:33:19;;;;;;;2.85;2.02;;;;;;;21.04;51.17;99980.83;;;;-57
2019/11/09 12:36:19;;;;;;;2.31;1.91;;;;;;;21.03;51.18;99976.53;;;;-51
2019/11/09 12:39:19;;;;;;;2.38;2.00;;;;;;;21.03;51.15;99978.95;;;;-56
2019/11/09 12:42:19;;;;;;;2.37;2.07;;;;;;;21.03;51.20;99977.95;;;;-57
2019/11/09 12:45:19;;;;;;;2.50;1.97;;;;;;;21.02;51.17;99973.22;;;;-57
2019/11/09 12:48:19;;;;;;;2.16;1.96;;;;;;;21.02;51.20;99970.80;;;;-57
2019/11/09 12:51:19;;;;;;;2.72;1.94;;;;;;;21.03;51.21;99972.91;;;;-56
2019/11/09 12:54:19;;;;;;;3.09;1.98;;;;;;;21.02;51.20;99969.02;;;;-57
2019/11/09 12:57:19;;;;;;;2.22;2.01;;;;;;;21.01;51.22;99959.92;;;;-51
2019/11/09 13:00:19;;;;;;;2.01;1.76;;;;;;;21.01;51.22;99958.41;;;;-51
2019/11/09 13:03:19;;;;;;;2.81;1.95;;;;;;;21.01;51.26;99957.30;;;;-51
2019/11/09 13:06:19;;;;;;;2.47;1.90;;;;;;;21.01;51.16;99958.41;;;;-50
2019/11/09 13:09:19;;;;;;;2.11;1.91;;;;;;;21.00;51.23;99962.14;;;;-50
2019/11/09 13:12:19;;;;;;;2.61;1.99;;;;;;;21.02;51.11;99963.98;;;;-51
2019/11/09 13:15:19;;;;;;;2.42;2.01;;;;;;;21.00;50.77;99957.98;;;;-52
2019/11/09 13:18:19;;;;;;;3.15;2.07;;;;;;;21.00;51.07;99957.20;;;;-49
2019/11/09 13:21:19;;;;;;;3.08;2.01;;;;;;;21.01;50.97;99961.44;;;;-50
2019/11/09 13:24:19;;;;;;;2.37;1.94;;;;;;;21.00;50.91;99961.40;;;;-52
2019/11/09 13:27:19;;;;;;;2.51;2.08;;;;;;;21.01;50.77;99961.27;;;;-52
2019/11/09 13:30:19;;;;;;;3.57;1.99;;;;;;;21.02;50.92;99963.14;;;;-54
2019/11/09 13:33:19;;;;;;;3.05;1.89;;;;;;;21.02;51.11;99959.69;;;;-57
2019/11/09 13:36:19;;;;;;;2.28;1.99;;;;;;;21.04;50.98;99961.42;;;;-52
2019/11/09 13:39:19;;;;;;;3.69;1.90;;;;;;;21.06;51.26;99959.03;;;;-51
2019/11/09 13:42:19;;;;;;;3.07;1.92;;;;;;;21.06;51.01;99960.00;;;;-51
2019/11/09 13:45:19;;;;;;;3.03;1.95;;;;;;;21.06;50.87;99958.16;;;;-51
2019/11/09 13:48:19;;;;;;;5.87;2.33;;;;;;;21.07;50.65;99959.77;;;;-52
2019/11/09 13:51:19;;;;;;;2.19;1.96;;;;;;;21.08;50.55;99961.11;;;;-53
2019/11/09 13:54:19;;;;;;;4.96;2.05;;;;;;;21.08;50.58;99953.05;;;;-54
2019/11/09 13:57:19;;;;;;;2.99;1.91;;;;;;;21.09;50.47;99957.11;;;;-56
2019/11/09 14:00:19;;;;;;;2.91;1.89;;;;;;;21.09;50.48;99954.45;;;;-57
2019/11/09 14:03:19;;;;;;;1.95;1.69;;;;;;;21.10;50.37;99954.72;;;;-52
2019/11/09 14:06:19;;;;;;;2.10;1.84;;;;;;;21.09;50.38;99953.78;;;;-55
2019/11/09 14:09:19;;;;;;;2.27;1.93;;;;;;;21.11;50.35;99955.08;;;;-54
2019/11/09 14:12:19;;;;;;;2.66;1.80;;;;;;;21.12;50.35;99955.69;;;;-52
2019/11/09 14:15:19;;;;;;;1.99;1.79;;;;;;;21.12;50.23;99951.42;;;;-50
2019/11/09 14:18:19;;;;;;;3.20;1.79;;;;;;;21.12;50.29;99947.22;;;;-52
2019/11/09 14:21:19;;;;;;;2.10;1.90;;;;;;;21.13;50.19;99944.47;;;;-52
2019/11/09 14:24:19;;;;;;;2.18;1.95;;;;;;;21.13;50.23;99942.22;;;;-53
2019/11/09 14:27:19;;;;;;;3.42;1.87;;;;;;;21.13;50.46;99935.77;;;;-52
2019/11/09 14:30:19;;;;;;;3.04;1.70;;;;;;;21.13;50.57;99939.02;;;;-52
2019/11/09 14:33:19;;;;;;;1.92;1.76;;;;;;;21.12;50.63;99934.80;;;;-52
2019/11/09 14:36:19;;;;;;;2.51;1.90;;;;;;;21.13;50.69;99936.58;;;;-52
2019/11/09 14:39:19;;;;;;;1.80;1.70;;;;;;;21.12;50.70;99936.71;;;;-52
2019/11/09 14:42:19;;;;;;;2.44;1.91;;;;;;;21.11;50.72;99939.64;;;;-51
2019/11/09 14:45:19;;;;;;;5.12;1.90;;;;;;;21.11;50.77;99939.13;;;;-51
2019/11/09 14:48:18;;;;;;;2.01;1.71;;;;;;;21.12;50.78;99940.58;;;;-52
2019/11/09 14:51:19;;;;;;;2.79;1.68;;;;;;;21.11;50.91;99938.30;;;;-49
2019/11/09 14:54:19;;;;;;;12.30;2.14;;;;;;;21.13;51.20;99934.73;;;;-52
2019/11/09 14:57:19;;;;;;;7.01;2.04;;;;;;;21.14;50.25;99928.47;;;;-50
2019/11/09 15:00:19;;;;;;;3.25;1.79;;;;;;;21.15;50.71;99930.45;;;;-50
2019/11/09 15:03:19;;;;;;;3.25;1.74;;;;;;;21.15;50.88;99928.67;;;;-50
2019/11/09 15:06:24;;;;;;;3.51;1.77;;;;;;;21.16;50.90;99924.67;;;;-50
2019/11/09 15:09:19;;;;;;;3.55;1.77;;;;;;;21.16;51.00;99920.47;;;;-51
2019/11/09 15:12:19;;;;;;;6.03;1.70;;;;;;;21.17;51.09;99923.09;;;;-56
2019/11/09 15:15:19;;;;;;;2.65;1.85;;;;;;;21.18;51.11;99920.03;;;;-51
2019/11/09 15:18:19;;;;;;;2.12;1.67;;;;;;;21.17;51.09;99915.30;;;;-52
2019/11/09 15:21:19;;;;;;;2.56;1.73;;;;;;;21.19;51.11;99919.89;;;;-49
2019/11/09 15:24:19;;;;;;;3.03;1.68;;;;;;;21.20;50.91;99919.24;;;;-52
2019/11/09 15:27:19;;;;;;;2.37;1.60;;;;;;;21.20;50.95;99916.63;;;;-52
2019/11/09 15:30:19;;;;;;;3.08;1.68;;;;;;;21.18;50.91;99911.39;;;;-52
2019/11/09 15:33:19;;;;;;;3.87;1.77;;;;;;;21.18;50.94;99912.88;;;;-52
2019/11/09 15:36:19;;;;;;;2.60;1.60;;;;;;;21.17;50.90;99907.98;;;;-50
2019/11/09 15:39:19;;;;;;;2.02;1.66;;;;;;;21.16;51.00;99905.36;;;;-52
2019/11/09 15:42:19;;;;;;;3.51;1.81;;;;;;;21.15;50.92;99901.54;;;;-52
2019/11/09 15:45:19;;;;;;;2.71;1.73;;;;;;;21.15;50.94;99898.95;;;;-52
2019/11/09 15:48:19;;;;;;;2.18;1.79;;;;;;;21.14;50.92;99903.56;;;;-51
2019/11/09 15:51:19;;;;;;;2.79;1.59;;;;;;;21.14;50.94;99905.23;;;;-51
2019/11/09 15:54:19;;;;;;;2.86;1.65;;;;;;;21.14;50.91;99909.06;;;;-51
2019/11/09 15:57:19;;;;;;;1.97;1.59;;;;;;;21.13;50.90;99906.95;;;;-50
2019/11/09 16:00:19;;;;;;;2.51;1.63;;;;;;;21.13;50.94;99907.13;;;;-52
2019/11/09 16:03:19;;;;;;;2.01;1.66;;;;;;;21.13;50.97;99907.45;;;;-52
2019/11/09 16:06:19;;;;;;;3.42;1.68;;;;;;;21.12;50.92;99903.23;;;;-51
2019/11/09 16:09:19;;;;;;;1.93;1.69;;;;;;;21.12;50.88;99900.61;;;;-51
2019/11/09 16:12:19;;;;;;;2.07;1.65;;;;;;;21.12;50.93;99902.66;;;;-51
2019/11/09 16:15:18;;;;;;;2.42;1.52;;;;;;;21.11;50.91;99902.36;;;;-51
2019/11/09 16:18:19;;;;;;;2.09;1.60;;;;;;;21.11;50.85;99904.04;;;;-52
2019/11/09 16:21:19;;;;;;;1.85;1.69;;;;;;;21.11;50.93;99904.95;;;;-52
2019/11/09 16:24:19;;;;;;;2.92;1.63;;;;;;;21.09;50.92;99905.56;;;;-51
2019/11/09 16:27:18;;;;;;;2.11;1.69;;;;;;;21.11;50.92;99906.23;;;;-51
2019/11/09 16:30:19;;;;;;;2.26;1.66;;;;;;;21.10;50.87;99902.23;;;;-52
2019/11/09 16:33:19;;;;;;;1.91;1.65;;;;;;;21.10;50.85;99908.14;;;;-51
2019/11/09 16:36:34;;;;;;;2.13;1.80;;;;;;;21.09;50.87;99906.03;;;;-51
2019/11/09 16:39:19;;;;;;;1.90;1.69;;;;;;;21.10;50.89;99911.97;;;;-52
2019/11/09 16:42:19;;;;;;;2.34;1.70;;;;;;;21.09;50.92;99912.08;;;;-51
2019/11/09 16:45:19;;;;;;;2.93;1.83;;;;;;;21.09;50.94;99907.00;;;;-51
2019/11/09 16:48:19;;;;;;;2.37;1.65;;;;;;;21.10;50.89;99905.59;;;;-52
2019/11/09 16:51:19;;;;;;;1.59;1.45;;;;;;;21.09;50.91;99921.55;;;;-52
2019/11/09 16:54:19;;;;;;;2.14;1.76;;;;;;;21.09;50.97;99930.41;;;;-51
2019/11/09 16:57:19;;;;;;;2.11;1.84;;;;;;;21.09;50.92;99925.87;;;;-52
2019/11/09 17:00:19;;;;;;;1.81;1.71;;;;;;;21.08;50.94;99925.72;;;;-52
2019/11/09 17:03:19;;;;;;;2.35;1.81;;;;;;;21.08;50.95;99920.34;;;;-51